• Join FlightAware (Why Join?)
  • Login
  • US Flag 
06:10PM EST


 

Airport Tracker/Info


-or-


 

Live Flight TrackerFlight Track Log ✈ ANA609 ✈ 23-Apr-2013 ✈ RJTT / HND - RJFM / KMI

Flight Track Log - Related Links

Times and Time Zones

All times are in EDT time to prevent confusion due to time zone crossing. See the ANA609 flight status page for this flight to view local times or setup timezone preferences in your user account.

Time Position Orientation Groundspeed Altitude Reporting Facility
EDT Latitude Longitude Course Direction KTS MPH feet Rate Location/Type
12:52AM 34.5146 137.2173 244° Southwest  Level Estimated
12:53AM 34.4683 137.1073 243° Southwest  Level Estimated
12:54AM 34.4218 136.9975 243° Southwest  Level Estimated
12:55AM 34.3753 136.8878 243° Southwest  Level Estimated
12:56AM 34.3287 136.7782 243° Southwest  Level Estimated
12:57AM 34.2820 136.6688 243° Southwest  Level Estimated
12:58AM 34.2352 136.5594 243° Southwest  Level Estimated
12:59AM 34.1883 136.4502 243° Southwest  Level Estimated
01:00AM 34.1412 136.3412 243° Southwest  Level Estimated
01:01AM 34.0941 136.2322 242° Southwest  Level Estimated
01:02AM 34.0469 136.1234 242° Southwest  Level Estimated
01:03AM 33.9996 136.0146 242° Southwest  Level Estimated
01:04AM 33.9523 135.9060 242° Southwest  Level Estimated
01:05AM 33.9048 135.7975 242° Southwest  Level Estimated
01:06AM 33.8572 135.6892 242° Southwest  Level Estimated
01:07AM 33.8095 135.5809 242° Southwest  Level Estimated
01:08AM 33.7617 135.4728 242° Southwest  Level Estimated
01:09AM 33.7139 135.3648 242° Southwest  Level Estimated
01:10AM 33.6659 135.2569 242° Southwest  Level Estimated
01:11AM 33.6179 135.1492 242° Southwest  Level Estimated
01:12AM 33.5697 135.0416 242° Southwest  Level Estimated
01:13AM 33.5215 134.9341 242° Southwest  Level Estimated
01:14AM 33.4731 134.8267 242° Southwest  Level Estimated
01:15AM 33.4247 134.7194 242° Southwest  Level Estimated
01:16AM 33.3762 134.6122 242° Southwest  Level Estimated
01:17AM 33.3276 134.5052 241° Southwest  Level Estimated
01:18AM 33.2789 134.3983 241° Southwest  Level Estimated
01:19AM 33.2301 134.2915 241° Southwest  Level Estimated
01:20AM 33.1812 134.1848 241° Southwest  Level Estimated
01:21AM 33.1323 134.0782 241° Southwest  Level Estimated
01:22AM 33.0832 133.9718 241° Southwest  Level Estimated
01:23AM 33.0340 133.8655 241° Southwest  Level Estimated
01:24AM 32.9848 133.7593 241° Southwest  Level Estimated
01:25AM 32.9355 133.6532 241° Southwest  Level Estimated
01:26AM 32.8861 133.5472 241° Southwest  Level Estimated
01:27AM 32.8365 133.4414 241° Southwest  Level Estimated
01:28AM 32.7869 133.3356 241° Southwest  Level Estimated
01:29AM 32.7373 133.2300 241° Southwest  Level Estimated
01:30AM 32.6875 133.1245 241° Southwest  Level Estimated
01:31AM 32.6376 133.0192 241° Southwest  Level Estimated
01:32AM 32.5876 132.9139 241° Southwest  Level Estimated
01:33AM 32.5376 132.8088 241° Southwest  Level Estimated
01:34AM 32.4875 132.7038 241° Southwest  Level Estimated
01:35AM 32.4372 132.5988 240° Southwest  Level Estimated
01:36AM 32.3869 132.4940 240° Southwest  Level Estimated
01:37AM 32.3366 132.3894 240° Southwest  Level Estimated
01:38AM 32.2861 132.2848 240° Southwest  Level Estimated
01:39AM 32.2355 132.1804 240° Southwest  Level Estimated
01:40AM 32.1849 132.0761 240° Southwest  Level Estimated
01:41AM 32.1341 131.9718 240° Southwest  Level Estimated
01:42AM 32.0833 131.8678 240° Southwest  Level Estimated
01:43AM 32.0324 131.7638 240° Southwest  Level Estimated
01:44AM 31.9814 131.6599 240° Southwest  Level Estimated
01:45AM 31.9303 131.5562 240° Southwest  Level Estimated
01:46AM 31.8792 131.4525 240° Southwest  Level Estimated
01:47AM 31.8772 131.4486 240° Southwest  Level Estimated
01:48AM 31.8772 131.4486 23° Northeast  Level Estimated
01:49AM 31.8772 131.4486 23° Northeast  Level Estimated
01:50AM 31.8772 131.4486 23° Northeast  Level Estimated
01:51AM 31.8772 131.4486 23° Northeast  Level Estimated
01:52AM 31.8772 131.4486 23° Northeast  Level Estimated
01:53AM 31.8772 131.4486 23° Northeast  Level Estimated
01:54AM 31.8772 131.4486 23° Northeast  Level Estimated
01:55AM 31.8772 131.4486 23° Northeast  Level Estimated
01:56AM 31.8772 131.4486 23° Northeast  Level Estimated
01:57AM 31.8772 131.4486 23° Northeast  Level Estimated
01:58AM 31.8772 131.4486 23° Northeast  Level Estimated
01:59AM 31.8772 131.4486 23° Northeast  Level Estimated